createdAt,value
2019-05-23T00:01:18.868Z,9.27
2019-05-23T00:03:57.088Z,9.07
2019-05-23T00:06:27.951Z,9.13
2019-05-23T00:08:58.814Z,10.80
2019-05-23T00:11:33.138Z,9.33
2019-05-23T00:14:20.582Z,9.53
2019-05-23T00:16:51.870Z,10.93
2019-05-23T00:19:21.913Z,9.83
2019-05-23T00:21:51.914Z,10.70
2019-05-23T00:24:22.316Z,10.60
2019-05-23T00:26:52.740Z,9.87
2019-05-23T00:29:22.233Z,11.10
2019-05-23T00:32:00.147Z,10.27
2019-05-23T00:34:31.320Z,9.90
2019-05-23T00:37:02.404Z,11.27
2019-05-23T00:39:32.227Z,11.10
2019-05-23T00:42:01.886Z,10.30
2019-05-23T00:44:32.090Z,9.93
2019-05-23T00:47:01.394Z,11.27
2019-05-23T00:49:30.712Z,10.30
2019-05-23T00:52:00.224Z,10.50
2019-05-23T00:54:36.972Z,10.60
2019-05-23T00:57:07.516Z,10.70
2019-05-23T00:59:36.771Z,11.20
2019-05-23T01:02:07.737Z,10.80
2019-05-23T01:04:39.765Z,10.53
2019-05-23T01:07:10.308Z,11.30
2019-05-23T01:09:39.818Z,11.47
2019-05-23T01:12:09.213Z,10.57
2019-05-23T01:14:39.392Z,10.90
2019-05-23T01:17:20.593Z,10.83
2019-05-23T01:19:50.897Z,10.87
2019-05-23T01:22:40.902Z,10.67
2019-05-23T01:25:13.393Z,10.37
2019-05-23T01:27:43.213Z,9.87
2019-05-23T01:30:15.587Z,10.33
2019-05-23T01:32:49.875Z,9.77
2019-05-23T01:35:20.192Z,9.60
2019-05-23T01:37:49.738Z,9.67
2019-05-23T01:40:19.953Z,7.93
2019-05-23T01:42:52.348Z,8.00
2019-05-23T01:45:22.791Z,8.13
2019-05-23T01:47:53.418Z,8.17
2019-05-23T01:50:27.222Z,7.87
2019-05-23T01:52:57.768Z,8.20
2019-05-23T01:55:27.324Z,7.80
2019-05-23T01:57:56.682Z,8.07
2019-05-23T02:00:31.356Z,8.03
2019-05-23T02:03:01.080Z,7.03
2019-05-23T02:05:30.910Z,7.20
2019-05-23T02:08:00.950Z,7.07
2019-05-23T02:10:31.105Z,7.77
2019-05-23T02:13:00.963Z,6.50
2019-05-23T02:15:30.190Z,7.00
2019-05-23T02:17:59.459Z,7.37
2019-05-23T02:20:30.030Z,7.37
2019-05-23T02:22:59.624Z,6.80
2019-05-23T02:25:29.182Z,6.87
2019-05-23T02:27:58.468Z,6.73
2019-05-23T02:30:34.715Z,6.10
2019-05-23T02:33:02.788Z,5.70
2019-05-23T02:35:32.224Z,6.20
2019-05-23T02:38:21.001Z,6.87
2019-05-23T02:40:58.074Z,6.30
2019-05-23T02:43:29.160Z,6.30
2019-05-23T02:46:02.921Z,6.17
2019-05-23T02:48:36.867Z,6.43
2019-05-23T02:51:10.688Z,6.17
2019-05-23T02:53:40.714Z,6.50
2019-05-23T02:56:14.694Z,5.90
2019-05-23T02:59:05.664Z,6.23
2019-05-23T03:02:08.321Z,6.10
2019-05-23T03:04:38.701Z,5.63
2019-05-23T03:07:09.674Z,6.47
2019-05-23T03:09:39.874Z,6.13
2019-05-23T03:12:10.994Z,5.80
2019-05-23T03:14:42.168Z,6.13
2019-05-23T03:17:16.614Z,6.50
2019-05-23T03:19:55.834Z,6.57
2019-05-23T03:22:36.666Z,6.03
2019-05-23T03:25:10.468Z,6.10
2019-05-23T03:27:44.869Z,6.60
2019-05-23T03:30:19.375Z,6.13
2019-05-23T03:32:54.394Z,6.27
2019-05-23T03:35:37.801Z,5.97
2019-05-23T03:38:09.259Z,6.17
2019-05-23T03:40:40.126Z,6.67
2019-05-23T03:43:10.005Z,6.13
2019-05-23T03:45:44.103Z,6.47
2019-05-23T03:48:13.764Z,6.60
2019-05-23T03:50:44.409Z,6.40
2019-05-23T03:53:14.923Z,7.27
2019-05-23T03:55:45.838Z,6.57
2019-05-23T03:58:15.139Z,7.33
2019-05-23T04:00:53.312Z,7.23
2019-05-23T04:03:24.273Z,6.83
2019-05-23T04:05:54.613Z,7.27
2019-05-23T04:08:25.072Z,7.20
2019-05-23T04:11:13.885Z,7.20
2019-05-23T04:13:43.585Z,7.17
2019-05-23T04:16:13.334Z,8.73
2019-05-23T04:18:43.394Z,8.27
2019-05-23T04:21:13.089Z,8.93
2019-05-23T04:23:42.452Z,9.27
2019-05-23T04:26:12.856Z,8.50
2019-05-23T04:28:42.345Z,9.10
2019-05-23T04:31:13.267Z,8.60
2019-05-23T04:33:42.785Z,10.63
2019-05-23T04:36:13.267Z,9.83
2019-05-23T04:38:42.624Z,10.13
2019-05-23T04:41:11.918Z,10.43
2019-05-23T04:43:41.220Z,11.13
2019-05-23T04:46:10.570Z,11.90
2019-05-23T04:48:39.892Z,10.73
2019-05-23T04:51:10.681Z,9.93
2019-05-23T04:53:40.069Z,11.73
2019-05-23T04:56:10.320Z,13.53
2019-05-23T04:58:40.532Z,12.47
2019-05-23T05:01:11.035Z,14.13
2019-05-23T05:03:41.904Z,14.37
2019-05-23T05:06:11.270Z,15.87
2019-05-23T05:08:40.848Z,16.93
2019-05-23T05:11:10.263Z,18.33
2019-05-23T05:13:40.174Z,18.33
2019-05-23T05:16:09.827Z,18.17
2019-05-23T05:18:39.487Z,21.00
2019-05-23T05:21:09.055Z,19.33
2019-05-23T05:23:38.692Z,20.67
2019-05-23T05:26:15.505Z,20.47
2019-05-23T05:28:44.817Z,21.27
2019-05-23T05:31:16.045Z,22.60
2019-05-23T05:34:04.614Z,23.07
2019-05-23T05:36:33.838Z,23.10
2019-05-23T05:39:05.076Z,22.37
2019-05-23T05:41:34.555Z,23.40
2019-05-23T05:44:03.845Z,22.83
2019-05-23T05:46:33.810Z,22.87
2019-05-23T05:49:03.304Z,22.20
2019-05-23T05:51:33.065Z,23.47
2019-05-23T05:54:03.100Z,21.77
2019-05-23T05:56:35.089Z,21.37
2019-05-23T05:59:04.507Z,20.77
2019-05-23T06:01:34.703Z,22.13
2019-05-23T06:04:05.442Z,20.23
2019-05-23T06:06:56.850Z,18.83
2019-05-23T06:09:29.502Z,18.43
2019-05-23T06:11:59.059Z,19.13
2019-05-23T06:14:28.874Z,19.20
2019-05-23T06:16:58.582Z,21.30
2019-05-23T06:19:27.953Z,20.10
2019-05-23T06:21:57.559Z,21.80
2019-05-23T06:24:42.657Z,21.53
2019-05-23T06:26:58.937Z,21.70
2019-05-23T06:29:29.095Z,22.37
2019-05-23T06:31:58.967Z,23.65
2019-05-23T06:34:28.807Z,23.18
2019-05-23T06:36:59.232Z,24.67
2019-05-23T06:39:29.215Z,26.52
2019-05-23T06:41:58.481Z,25.72
2019-05-23T06:44:28.208Z,26.07
2019-05-23T06:46:57.543Z,24.98
2019-05-23T06:49:26.931Z,24.80
2019-05-23T06:51:56.342Z,26.77
2019-05-23T06:54:25.918Z,25.77
2019-05-23T06:56:55.373Z,26.37
2019-05-23T06:59:25.073Z,26.25
2019-05-23T07:01:55.224Z,25.02
2019-05-23T07:04:24.758Z,24.35
2019-05-23T07:06:54.521Z,24.67
2019-05-23T07:09:23.910Z,23.65
2019-05-23T07:11:56.935Z,24.07
2019-05-23T07:14:26.526Z,24.77
2019-05-23T07:16:56.005Z,24.18
2019-05-23T07:19:26.205Z,23.25
2019-05-23T07:21:55.923Z,23.73
2019-05-23T07:24:26.252Z,23.95
2019-05-23T07:26:57.909Z,24.00
2019-05-23T07:29:27.395Z,23.57
2019-05-23T07:31:56.968Z,25.05
2019-05-23T07:34:26.590Z,24.20
2019-05-23T07:36:56.964Z,24.40
2019-05-23T07:39:26.568Z,23.60
2019-05-23T07:41:55.780Z,24.43
2019-05-23T07:44:25.566Z,24.00
2019-05-23T07:46:54.961Z,25.30
2019-05-23T07:49:24.405Z,24.57
2019-05-23T07:51:53.848Z,23.83
2019-05-23T07:54:34.645Z,22.75
2019-05-23T07:57:04.869Z,22.17
2019-05-23T07:59:34.429Z,22.02
2019-05-23T08:02:25.498Z,25.12
2019-05-23T08:04:52.255Z,23.10
2019-05-23T08:07:23.442Z,22.75
2019-05-23T08:09:52.944Z,20.23
2019-05-23T08:12:22.246Z,21.57
2019-05-23T08:14:51.788Z,21.37
2019-05-23T08:17:21.729Z,18.45
2019-05-23T08:19:51.084Z,18.30
2019-05-23T08:22:20.600Z,17.35
2019-05-23T08:24:51.434Z,14.80
2019-05-23T08:27:21.240Z,15.13
2019-05-23T08:29:52.408Z,13.72
2019-05-23T08:32:22.236Z,13.70
2019-05-23T08:34:51.777Z,13.58
2019-05-23T08:37:21.453Z,12.75
2019-05-23T08:39:51.522Z,12.55
2019-05-23T08:42:22.447Z,11.90
2019-05-23T08:44:51.989Z,12.07
2019-05-23T08:47:24.409Z,13.10
2019-05-23T08:49:53.714Z,12.25
2019-05-23T08:52:23.411Z,11.05
2019-05-23T08:54:57.341Z,10.85
2019-05-23T08:57:27.077Z,13.83
2019-05-23T08:59:56.667Z,13.38
2019-05-23T09:02:27.554Z,12.80
2019-05-23T09:05:05.373Z,11.90
2019-05-23T09:07:28.990Z,11.20
2019-05-23T09:09:58.982Z,10.55
2019-05-23T09:12:28.288Z,10.48
2019-05-23T09:14:57.790Z,10.30
2019-05-23T09:17:27.549Z,9.30
2019-05-23T09:19:56.842Z,8.70
2019-05-23T09:22:26.458Z,8.93
2019-05-23T09:24:56.129Z,8.03
2019-05-23T09:27:25.495Z,8.50
2019-05-23T09:29:55.153Z,7.90
2019-05-23T09:32:24.468Z,7.08
2019-05-23T09:34:53.769Z,8.43
2019-05-23T09:37:23.673Z,9.38
2019-05-23T09:39:54.072Z,7.30
2019-05-23T09:42:23.526Z,8.80
2019-05-23T09:44:52.997Z,7.80
2019-05-23T09:47:22.319Z,8.83
2019-05-23T09:49:54.353Z,7.35
2019-05-23T09:52:25.064Z,6.60
2019-05-23T09:54:54.612Z,6.60
2019-05-23T09:57:26.321Z,6.03
2019-05-23T09:59:57.046Z,5.87
2019-05-23T10:02:28.150Z,5.53
2019-05-23T10:04:58.008Z,6.03
2019-05-23T10:07:27.664Z,6.08
2019-05-23T10:09:57.000Z,6.25
2019-05-23T10:12:26.356Z,6.22
2019-05-23T10:14:55.713Z,6.03
2019-05-23T10:17:25.164Z,4.78
2019-05-23T10:19:54.504Z,5.40
2019-05-23T10:22:23.719Z,6.00
2019-05-23T10:24:53.162Z,7.05
2019-05-23T10:27:22.491Z,5.83
2019-05-23T10:29:51.899Z,5.58
2019-05-23T10:32:21.804Z,5.15
2019-05-23T10:34:51.333Z,5.95
2019-05-23T10:37:20.990Z,5.90
2019-05-23T10:39:54.578Z,5.55
2019-05-23T10:42:28.080Z,5.65
2019-05-23T10:44:57.422Z,5.20
2019-05-23T10:47:26.897Z,5.75
2019-05-23T10:49:56.346Z,5.03
2019-05-23T10:52:26.117Z,5.10
2019-05-23T10:54:55.439Z,5.42
2019-05-23T10:57:25.156Z,5.03
2019-05-23T10:59:54.799Z,5.20
2019-05-23T11:02:26.967Z,5.00
2019-05-23T11:04:55.885Z,4.90
2019-05-23T11:07:25.515Z,4.97
2019-05-23T11:09:54.951Z,5.73
2019-05-23T11:12:24.266Z,5.30
2019-05-23T11:14:54.039Z,5.17
2019-05-23T11:17:23.546Z,4.13
2019-05-23T11:19:52.988Z,4.33
2019-05-23T11:22:23.035Z,3.60
2019-05-23T11:24:52.492Z,4.60
2019-05-23T11:27:22.566Z,3.97
2019-05-23T11:29:52.064Z,4.20
2019-05-23T11:32:21.717Z,3.60
2019-05-23T11:34:51.034Z,4.50
2019-05-23T11:37:20.759Z,3.67
2019-05-23T11:39:51.125Z,3.37
2019-05-23T11:42:20.766Z,4.30
2019-05-23T11:44:50.148Z,4.10
2019-05-23T11:47:19.554Z,4.37
2019-05-23T11:49:48.970Z,3.87
2019-05-23T11:52:18.889Z,4.27
2019-05-23T11:54:48.856Z,3.60
2019-05-23T11:57:18.429Z,4.27
2019-05-23T11:59:48.108Z,4.30
2019-05-23T12:02:39.960Z,4.23
2019-05-23T12:05:13.377Z,4.40
2019-05-23T12:07:43.259Z,4.20
2019-05-23T12:10:13.574Z,4.60
2019-05-23T12:12:42.841Z,4.10
2019-05-23T12:15:16.848Z,4.93
2019-05-23T12:17:46.400Z,5.07
2019-05-23T12:20:15.844Z,4.63
2019-05-23T12:22:45.597Z,4.40
2019-05-23T12:25:22.585Z,3.90
2019-05-23T12:27:48.356Z,4.83
2019-05-23T12:30:19.274Z,4.17
2019-05-23T12:32:48.731Z,4.40
2019-05-23T12:35:18.115Z,4.57
2019-05-23T12:37:47.474Z,5.13
2019-05-23T12:40:17.493Z,4.10
2019-05-23T12:42:46.859Z,3.70
2019-05-23T12:45:16.697Z,3.50
2019-05-23T12:48:00.540Z,3.20
2019-05-23T12:50:36.812Z,3.70
2019-05-23T12:53:07.331Z,3.97
2019-05-23T12:55:36.551Z,5.30
2019-05-23T12:58:05.928Z,4.47
2019-05-23T13:00:51.287Z,4.90
2019-05-23T13:03:20.804Z,4.83
2019-05-23T13:05:50.668Z,4.33
2019-05-23T13:08:20.111Z,3.20
2019-05-23T13:10:49.777Z,4.30
2019-05-23T13:13:25.368Z,4.07
2019-05-23T13:15:54.835Z,4.20
2019-05-23T13:18:24.843Z,5.30
2019-05-23T13:20:58.740Z,4.73
2019-05-23T13:23:26.629Z,4.40
2019-05-23T13:25:56.127Z,5.37
2019-05-23T13:28:25.616Z,5.87
2019-05-23T13:30:54.876Z,5.00
2019-05-23T13:33:24.433Z,4.37
2019-05-23T13:35:54.089Z,4.70
2019-05-23T13:38:23.558Z,4.43
2019-05-23T13:40:53.042Z,4.50
2019-05-23T13:43:22.811Z,4.10
2019-05-23T13:45:52.185Z,4.00
2019-05-23T13:48:21.484Z,4.47
2019-05-23T13:50:50.804Z,4.50
2019-05-23T13:53:20.300Z,5.33
2019-05-23T13:56:08.669Z,5.03
2019-05-23T13:58:38.646Z,4.87
2019-05-23T14:01:09.472Z,6.53
2019-05-23T14:03:39.204Z,5.70
2019-05-23T14:06:08.741Z,6.10
2019-05-23T14:08:38.975Z,6.87
2019-05-23T14:11:08.474Z,6.67
2019-05-23T14:13:37.969Z,6.73
2019-05-23T14:16:07.577Z,7.30
2019-05-23T14:18:37.744Z,8.10
2019-05-23T14:21:07.244Z,7.57
2019-05-23T14:23:36.490Z,8.33
2019-05-23T14:26:06.738Z,8.27
2019-05-23T14:28:36.001Z,8.00
2019-05-23T14:31:24.468Z,8.00
2019-05-23T14:34:09.558Z,8.77
2019-05-23T14:36:47.064Z,9.23
2019-05-23T14:39:23.605Z,8.70
2019-05-23T14:41:59.003Z,9.27
2019-05-23T14:44:28.379Z,8.27
2019-05-23T14:47:15.819Z,9.03
2019-05-23T14:49:51.748Z,8.87
2019-05-23T14:52:26.996Z,9.57
2019-05-23T14:55:00.499Z,8.13
2019-05-23T14:57:29.885Z,9.30
2019-05-23T14:59:59.476Z,8.50
2019-05-23T15:02:28.993Z,8.57
2019-05-23T15:04:58.378Z,8.47
2019-05-23T15:07:27.790Z,9.40
2019-05-23T15:09:57.295Z,9.10
2019-05-23T15:12:26.775Z,7.63
2019-05-23T15:14:56.101Z,9.43
2019-05-23T15:17:25.722Z,8.70
2019-05-23T15:19:55.223Z,8.20
2019-05-23T15:22:24.851Z,8.50
2019-05-23T15:25:13.286Z,9.00
2019-05-23T15:27:42.655Z,7.67
2019-05-23T15:30:12.739Z,8.00
2019-05-23T15:32:42.101Z,7.57
2019-05-23T15:35:11.457Z,7.60
2019-05-23T15:37:41.159Z,7.37
2019-05-23T15:40:11.922Z,7.77
2019-05-23T15:42:41.325Z,6.90
2019-05-23T15:45:11.158Z,6.80
2019-05-23T15:47:40.523Z,6.43
2019-05-23T15:50:12.186Z,6.53
2019-05-23T15:53:02.378Z,6.30
2019-05-23T15:55:40.233Z,6.20
2019-05-23T15:58:22.049Z,7.27
2019-05-23T16:00:55.978Z,7.63
2019-05-23T16:03:50.512Z,5.83
2019-05-23T16:06:21.643Z,6.63
2019-05-23T16:08:51.460Z,6.17
2019-05-23T16:11:21.347Z,5.53
2019-05-23T16:13:50.867Z,5.63
2019-05-23T16:16:22.611Z,4.50
2019-05-23T16:18:51.923Z,4.67
2019-05-23T16:21:21.492Z,3.23
2019-05-23T16:23:50.868Z,2.97
2019-05-23T16:26:20.178Z,3.00
2019-05-23T16:28:49.822Z,2.20
2019-05-23T16:31:19.593Z,2.70
2019-05-23T16:33:49.196Z,2.40
2019-05-23T16:36:18.950Z,2.60
2019-05-23T16:38:48.392Z,2.53
2019-05-23T16:41:17.740Z,2.90
2019-05-23T16:43:47.047Z,3.03
2019-05-23T16:46:16.533Z,2.80
2019-05-23T16:48:45.857Z,2.53
2019-05-23T16:51:15.136Z,2.63
2019-05-23T16:53:44.788Z,2.27
2019-05-23T16:56:25.581Z,2.47
2019-05-23T16:59:09.522Z,2.20
2019-05-23T17:02:09.852Z,2.40
2019-05-23T17:05:11.011Z,1.90
2019-05-23T17:08:08.658Z,2.00
2019-05-23T17:10:58.129Z,1.90
2019-05-23T17:13:34.558Z,2.03
2019-05-23T17:16:11.810Z,1.83
2019-05-23T17:18:55.945Z,2.93
2019-05-23T17:21:56.538Z,2.77
2019-05-23T17:24:31.820Z,2.40
2019-05-23T17:27:06.319Z,2.00
2019-05-23T17:29:44.868Z,2.33
2019-05-23T17:32:17.503Z,2.83
2019-05-23T17:34:46.850Z,2.60
2019-05-23T17:37:16.497Z,3.03
2019-05-23T17:39:45.871Z,2.80
2019-05-23T17:42:15.314Z,3.10
2019-05-23T17:44:44.655Z,2.60
2019-05-23T17:47:14.071Z,3.93
2019-05-23T17:49:43.629Z,3.43
2019-05-23T17:52:13.831Z,3.37
2019-05-23T17:54:43.303Z,3.03
2019-05-23T17:57:13.462Z,3.50
2019-05-23T17:59:42.880Z,3.90
2019-05-23T18:02:12.955Z,3.77
2019-05-23T18:04:42.404Z,3.80
2019-05-23T18:07:13.025Z,3.63
2019-05-23T18:09:43.265Z,3.90
2019-05-23T18:12:12.758Z,3.70
2019-05-23T18:14:42.977Z,3.50
2019-05-23T18:17:12.708Z,3.93
2019-05-23T18:19:42.545Z,4.00
2019-05-23T18:22:14.073Z,4.67
2019-05-23T18:24:43.570Z,4.20
2019-05-23T18:27:13.770Z,4.50
2019-05-23T18:29:43.945Z,4.20
2019-05-23T18:32:21.130Z,4.30
2019-05-23T18:34:57.253Z,4.57
2019-05-23T18:37:26.796Z,6.07
2019-05-23T18:39:56.077Z,4.20
2019-05-23T18:42:26.497Z,4.30
2019-05-23T18:44:56.735Z,4.33
2019-05-23T18:47:31.726Z,4.03
2019-05-23T18:50:01.466Z,4.53
2019-05-23T18:52:30.950Z,4.20
2019-05-23T18:55:00.453Z,4.17
2019-05-23T18:57:30.516Z,4.50
2019-05-23T18:59:59.844Z,4.30
2019-05-23T19:02:30.050Z,4.23
2019-05-23T19:04:59.710Z,4.77
2019-05-23T19:07:29.117Z,4.47
2019-05-23T19:09:58.544Z,4.83
2019-05-23T19:12:28.317Z,4.70
2019-05-23T19:14:57.605Z,4.57
2019-05-23T19:17:45.974Z,4.87
2019-05-23T19:20:15.942Z,4.83
2019-05-23T19:22:45.291Z,4.33
2019-05-23T19:25:16.389Z,4.40
2019-05-23T19:27:46.232Z,4.27
2019-05-23T19:30:15.687Z,3.80
2019-05-23T19:32:46.795Z,4.20
2019-05-23T19:35:16.124Z,4.13
2019-05-23T19:37:45.414Z,4.53
2019-05-23T19:40:15.427Z,4.50
2019-05-23T19:42:44.672Z,4.00
2019-05-23T19:45:14.095Z,4.20
2019-05-23T19:47:43.575Z,4.73
2019-05-23T19:50:12.965Z,4.53
2019-05-23T19:52:42.935Z,4.30
2019-05-23T19:55:12.201Z,4.07
2019-05-23T19:57:42.307Z,4.23
2019-05-23T20:00:15.183Z,4.20
2019-05-23T20:02:55.253Z,3.70
2019-05-23T20:05:29.372Z,4.37
2019-05-23T20:07:58.732Z,4.60
2019-05-23T20:10:28.935Z,5.23
2019-05-23T20:12:58.311Z,4.70
2019-05-23T20:15:28.175Z,4.97
2019-05-23T20:17:57.469Z,5.03
2019-05-23T20:20:28.379Z,4.80
2019-05-23T20:22:57.768Z,5.27
2019-05-23T20:25:27.998Z,5.10
2019-05-23T20:27:57.364Z,5.80
2019-05-23T20:31:00.335Z,7.80
2019-05-23T20:33:30.488Z,6.10
2019-05-23T20:36:00.423Z,6.57
2019-05-23T20:38:30.234Z,5.80
2019-05-23T20:40:59.630Z,5.00
2019-05-23T20:43:29.150Z,5.10
2019-05-23T20:45:58.398Z,4.70
2019-05-23T20:48:28.607Z,3.77
2019-05-23T20:50:58.006Z,4.40
2019-05-23T20:53:27.235Z,4.60
2019-05-23T20:55:56.472Z,4.67
2019-05-23T20:58:25.773Z,5.07
2019-05-23T21:01:16.001Z,5.23
2019-05-23T21:03:45.387Z,4.77
2019-05-23T21:06:15.468Z,4.43
2019-05-23T21:08:45.048Z,4.40
2019-05-23T21:11:14.321Z,3.93
2019-05-23T21:13:43.723Z,4.70
2019-05-23T21:16:12.986Z,4.67
2019-05-23T21:18:42.441Z,4.60
2019-05-23T21:21:12.118Z,5.00
2019-05-23T21:23:41.477Z,4.70
2019-05-23T21:26:10.854Z,5.37
2019-05-23T21:28:40.478Z,5.13
2019-05-23T21:31:19.461Z,4.87
2019-05-23T21:33:48.747Z,4.87
2019-05-23T21:36:18.137Z,4.87
2019-05-23T21:38:47.797Z,4.70
2019-05-23T21:41:17.073Z,4.80
2019-05-23T21:43:48.316Z,4.87
2019-05-23T21:46:17.643Z,4.97
2019-05-23T21:48:47.036Z,5.13
2019-05-23T21:51:16.336Z,5.00
2019-05-23T21:53:45.681Z,4.77
2019-05-23T21:56:15.021Z,4.87
2019-05-23T21:58:51.641Z,4.83
2019-05-23T22:01:38.904Z,5.47
2019-05-23T22:04:27.330Z,4.40
2019-05-23T22:07:07.709Z,4.77
2019-05-23T22:09:37.103Z,4.97
2019-05-23T22:12:09.077Z,4.67
2019-05-23T22:14:38.611Z,5.03
2019-05-23T22:17:07.917Z,5.33
2019-05-23T22:19:37.203Z,5.73
2019-05-23T22:22:06.923Z,4.90
2019-05-23T22:24:36.302Z,5.40
2019-05-23T22:27:08.978Z,5.37
2019-05-23T22:29:38.299Z,4.73
2019-05-23T22:32:09.254Z,5.40
2019-05-23T22:34:50.059Z,5.97
2019-05-23T22:37:26.482Z,6.40
2019-05-23T22:39:55.835Z,5.23
2019-05-23T22:42:26.701Z,5.07
2019-05-23T22:44:56.018Z,4.90
2019-05-23T22:47:25.907Z,4.77
2019-05-23T22:49:55.148Z,4.93
2019-05-23T22:52:24.655Z,4.87
2019-05-23T22:54:53.948Z,4.77
2019-05-23T22:57:23.261Z,4.43
2019-05-23T22:59:52.583Z,4.73
2019-05-23T23:02:21.986Z,5.93
2019-05-23T23:04:51.289Z,5.60
2019-05-23T23:07:20.625Z,6.23
2019-05-23T23:09:49.887Z,5.90
2019-05-23T23:12:19.758Z,6.20
2019-05-23T23:14:49.154Z,6.60
2019-05-23T23:17:19.543Z,6.93
2019-05-23T23:19:48.827Z,7.23
2019-05-23T23:22:18.176Z,8.07
2019-05-23T23:24:47.573Z,8.50
2019-05-23T23:27:16.843Z,9.87
2019-05-23T23:29:46.158Z,9.80
2019-05-23T23:32:15.696Z,8.93
2019-05-23T23:34:44.988Z,8.23
2019-05-23T23:37:14.300Z,9.17
2019-05-23T23:39:43.706Z,9.23
2019-05-23T23:42:13.033Z,9.17
2019-05-23T23:44:41.395Z,8.90
2019-05-23T23:47:28.350Z,9.53
2019-05-23T23:50:15.466Z,8.33
2019-05-23T23:53:02.324Z,8.60
2019-05-23T23:55:49.614Z,8.63
2019-05-23T23:58:18.236Z,8.07
